Time,TemperatureF,DewpointF,PressureIn,WindDirection,WindDirectionDegrees,WindSpeedMPH,WindSpeedGustMPH,Humidity,HourlyPrecipIn,Conditions,Clouds,dailyrainin,SoftwareType,DateUTC
2013-06-15 06:13:00,50.8,50.0,29.95,NE,35,0.0,-999.0,97,-99.99,,,0.00,weatherlink.com 1.10,2013-06-15 10:13:00,
2013-06-15 06:24:00,50.8,50.0,29.95,NE,35,0.0,-999.0,97,-99.99,,,0.00,weatherlink.com 1.10,2013-06-15 10:24:00,
2013-06-15 06:39:00,51.0,50.0,29.95,NE,35,0.0,-999.0,97,-99.99,,,0.00,weatherlink.com 1.10,2013-06-15 10:39:00,
2013-06-15 06:54:00,51.5,51.0,29.96,NE,35,0.0,-999.0,97,-99.99,,,0.00,weatherlink.com 1.10,2013-06-15 10:54:00,
2013-06-15 07:09:00,52.2,51.0,29.97,NE,35,0.0,-999.0,97,-99.99,,,0.00,weatherlink.com 1.10,2013-06-15 11:09:00,
2013-06-15 07:24:00,53.3,53.0,29.97,NE,35,0.0,-999.0,98,-99.99,,,0.00,weatherlink.com 1.10,2013-06-15 11:24:00,
2013-06-15 07:39:00,55.7,55.0,29.98,NE,35,0.0,-999.0,98,-99.99,,,0.00,weatherlink.com 1.10,2013-06-15 11:39:00,
2013-06-15 07:54:00,58.2,58.0,29.98,NE,35,0.0,-999.0,98,-99.99,,,0.00,weatherlink.com 1.10,2013-06-15 11:54:00,
2013-06-15 08:09:00,61.0,61.0,29.98,NE,35,0.0,-999.0,98,-99.99,,,0.00,weatherlink.com 1.10,2013-06-15 12:09:00,
2013-06-15 08:25:00,63.3,61.0,29.99,NE,35,0.0,-999.0,93,-99.99,,,0.00,weatherlink.com 1.10,2013-06-15 12:25:00,
2013-06-15 08:40:00,65.2,61.0,29.98,NE,35,0.0,-999.0,85,-99.99,,,0.00,weatherlink.com 1.10,2013-06-15 12:40:00,
2013-06-15 08:55:00,67.6,61.0,30.00,NE,35,0.0,-999.0,80,-99.99,,,0.00,weatherlink.com 1.10,2013-06-15 12:55:00,
2013-06-15 09:10:00,69.8,62.0,30.00,NE,35,0.0,-999.0,75,-99.99,,,0.00,weatherlink.com 1.10,2013-06-15 13:10:00,
2013-06-15 09:25:00,70.7,60.0,30.00,NE,35,0.0,-999.0,70,-99.99,,,0.00,weatherlink.com 1.10,2013-06-15 13:25:00,
2013-06-15 09:40:00,71.1,59.0,30.01,NW,323,0.0,-999.0,65,-99.99,,,0.00,weatherlink.com 1.10,2013-06-15 13:40:00,
2013-06-15 09:55:00,72.1,59.0,30.01,NW,305,0.0,-999.0,64,-99.99,,,0.00,weatherlink.com 1.10,2013-06-15 13:55:00,
2013-06-15 10:10:00,73.5,58.0,29.99,NW,305,0.0,-999.0,58,-99.99,,,0.00,weatherlink.com 1.10,2013-06-15 14:10:00,
2013-06-15 10:25:00,74.0,56.0,29.99,NW,305,0.0,-999.0,54,-99.99,,,0.00,weatherlink.com 1.10,2013-06-15 14:25:00,
2013-06-15 10:40:00,74.4,53.0,29.98,North,351,0.0,-999.0,47,-99.99,,,0.00,weatherlink.com 1.10,2013-06-15 14:40:00,
2013-06-15 10:56:00,74.4,53.0,29.99,North,360,0.0,-999.0,48,-99.99,,,0.00,weatherlink.com 1.10,2013-06-15 14:56:00,
2013-06-15 11:11:00,74.3,53.0,29.98,NNW,331,0.0,-999.0,47,-99.99,,,0.00,weatherlink.com 1.10,2013-06-15 15:11:00,
2013-06-15 11:26:00,75.2,53.0,29.98,NNW,340,0.0,-999.0,46,-99.99,,,0.00,weatherlink.com 1.10,2013-06-15 15:26:00,
2013-06-15 11:41:00,76.6,57.0,29.99,NW,306,0.0,-999.0,51,-99.99,,,0.00,weatherlink.com 1.10,2013-06-15 15:41:00,
2013-06-15 11:56:00,76.4,52.0,29.99,WSW,237,1.0,-999.0,42,-99.99,,,0.00,weatherlink.com 1.10,2013-06-15 15:56:00,
2013-06-15 12:11:00,76.1,52.0,29.99,NW,311,0.0,-999.0,43,-99.99,,,0.00,weatherlink.com 1.10,2013-06-15 16:11:00,
2013-06-15 12:26:00,77.3,53.0,29.98,WNW,300,0.0,-999.0,43,-99.99,,,0.00,weatherlink.com 1.10,2013-06-15 16:26:00,
2013-06-15 12:41:00,76.7,52.0,29.97,NNW,346,0.0,-999.0,43,-99.99,,,0.00,weatherlink.com 1.10,2013-06-15 16:41:00,
2013-06-15 12:56:00,77.2,54.0,29.98,NNW,332,0.0,-999.0,45,-99.99,,,0.00,weatherlink.com 1.10,2013-06-15 16:56:00,
2013-06-15 13:11:00,77.4,54.0,29.97,WNW,294,0.0,-999.0,45,-99.99,,,0.00,weatherlink.com 1.10,2013-06-15 17:11:00,
2013-06-15 13:27:00,77.9,55.0,29.97,NNW,327,0.0,-999.0,45,-99.99,,,0.00,weatherlink.com 1.10,2013-06-15 17:27:00,
2013-06-15 13:42:00,78.2,56.0,29.97,SE,140,0.0,-999.0,46,-99.99,,,0.00,weatherlink.com 1.10,2013-06-15 17:42:00,
2013-06-15 13:57:00,78.0,54.0,29.97,NNW,347,0.0,-999.0,43,-99.99,,,0.00,weatherlink.com 1.10,2013-06-15 17:57:00,
2013-06-15 14:12:00,77.5,54.0,29.96,North,351,0.0,-999.0,45,-99.99,,,0.00,weatherlink.com 1.10,2013-06-15 18:12:00,
2013-06-15 14:27:00,77.8,53.0,29.95,WNW,302,0.0,-999.0,42,-99.99,,,0.00,weatherlink.com 1.10,2013-06-15 18:27:00,
2013-06-15 14:42:00,78.9,53.0,29.95,WSW,248,0.0,-999.0,40,-99.99,,,0.00,weatherlink.com 1.10,2013-06-15 18:42:00,
2013-06-15 14:57:00,79.6,54.0,29.95,NW,315,0.0,-999.0,42,-99.99,,,0.00,weatherlink.com 1.10,2013-06-15 18:57:00,
2013-06-15 15:12:00,79.7,56.0,29.95,NNW,332,0.0,-999.0,45,-99.99,,,0.00,weatherlink.com 1.10,2013-06-15 19:12:00,
2013-06-15 15:27:00,79.5,54.0,29.94,West,279,0.0,-999.0,41,-99.99,,,0.00,weatherlink.com 1.10,2013-06-15 19:27:00,
2013-06-15 15:42:00,78.5,53.0,29.93,NW,321,0.0,-999.0,42,-99.99,,,0.00,weatherlink.com 1.10,2013-06-15 19:42:00,
2013-06-15 15:57:00,78.3,55.0,29.93,WNW,300,0.0,-999.0,45,-99.99,,,0.00,weatherlink.com 1.10,2013-06-15 19:57:00,
2013-06-15 16:12:00,78.5,55.0,29.93,West,273,0.0,-999.0,44,-99.99,,,0.00,weatherlink.com 1.10,2013-06-15 20:12:00,
2013-06-15 16:27:00,78.2,53.0,29.93,NNW,333,0.0,-999.0,42,-99.99,,,0.00,weatherlink.com 1.10,2013-06-15 20:27:00,
2013-06-15 16:43:00,77.4,54.0,29.93,NNW,327,0.0,-999.0,44,-99.99,,,0.00,weatherlink.com 1.10,2013-06-15 20:43:00,
2013-06-15 16:58:00,77.4,54.0,29.93,NW,313,0.0,-999.0,44,-99.99,,,0.00,weatherlink.com 1.10,2013-06-15 20:58:00,
2013-06-15 17:13:00,77.4,54.0,29.93,West,280,0.0,-999.0,44,-99.99,,,0.00,weatherlink.com 1.10,2013-06-15 21:13:00,
2013-06-15 17:28:00,77.7,56.0,29.93,WSW,245,0.0,-999.0,47,-99.99,,,0.00,weatherlink.com 1.10,2013-06-15 21:28:00,
2013-06-15 17:43:00,77.6,56.0,29.93,WNW,290,0.0,-999.0,47,-99.99,,,0.00,weatherlink.com 1.10,2013-06-15 21:43:00,
2013-06-15 17:58:00,77.3,55.0,29.93,WNW,290,0.0,-999.0,47,-99.99,,,0.00,weatherlink.com 1.10,2013-06-15 21:58:00,
2013-06-15 18:13:00,77.1,54.0,29.93,North,360,0.0,-999.0,45,-99.99,,,0.00,weatherlink.com 1.10,2013-06-15 22:13:00,
2013-06-15 18:28:00,76.6,55.0,29.93,NW,309,0.0,-999.0,48,-99.99,,,0.00,weatherlink.com 1.10,2013-06-15 22:28:00,
2013-06-15 18:43:00,76.1,54.0,29.93,NW,309,0.0,-999.0,46,-99.99,,,0.00,weatherlink.com 1.10,2013-06-15 22:43:00,
2013-06-15 18:58:00,75.6,55.0,29.92,NW,309,0.0,-999.0,49,-99.99,,,0.00,weatherlink.com 1.10,2013-06-15 22:58:00,
2013-06-15 19:13:00,74.8,55.0,29.93,NW,309,0.0,-999.0,51,-99.99,,,0.00,weatherlink.com 1.10,2013-06-15 23:13:00,
2013-06-15 19:28:00,73.9,56.0,29.93,NW,309,0.0,-999.0,53,-99.99,,,0.00,weatherlink.com 1.10,2013-06-15 23:28:00,
2013-06-15 19:43:00,72.7,57.0,29.94,NW,309,0.0,-999.0,59,-99.99,,,0.00,weatherlink.com 1.10,2013-06-15 23:43:00,
2013-06-15 19:59:00,71.8,58.0,29.94,NW,309,0.0,-999.0,63,-99.99,,,0.00,weatherlink.com 1.10,2013-06-15 23:59:00,
2013-06-15 20:14:00,70.7,59.0,29.94,NW,309,0.0,-999.0,66,-99.99,,,0.00,weatherlink.com 1.10,2013-06-16 00:14:00,
2013-06-15 20:29:00,69.8,58.0,29.94,ESE,119,0.0,-999.0,67,-99.99,,,0.00,weatherlink.com 1.10,2013-06-16 00:29:00,
2013-06-15 20:44:00,69.0,58.0,29.95,ESE,119,0.0,-999.0,68,-99.99,,,0.00,weatherlink.com 1.10,2013-06-16 00:44:00,
2013-06-15 20:59:00,67.6,58.0,29.95,ESE,119,0.0,-999.0,72,-99.99,,,0.00,weatherlink.com 1.10,2013-06-16 00:59:00,
2013-06-15 21:14:00,66.1,57.0,29.96,ESE,119,0.0,-999.0,73,-99.99,,,0.00,weatherlink.com 1.10,2013-06-16 01:14:00,
2013-06-15 21:29:00,64.9,57.0,29.96,ESE,119,0.0,-999.0,76,-99.99,,,0.00,weatherlink.com 1.10,2013-06-16 01:29:00,
2013-06-15 21:44:00,64.1,57.0,29.96,ESE,119,0.0,-999.0,78,-99.99,,,0.00,weatherlink.com 1.10,2013-06-16 01:44:00,
2013-06-15 21:59:00,63.3,57.0,29.97,ESE,119,0.0,-999.0,80,-99.99,,,0.00,weatherlink.com 1.10,2013-06-16 01:59:00,
2013-06-15 22:14:00,62.6,57.0,29.97,ESE,119,0.0,-999.0,82,-99.99,,,0.00,weatherlink.com 1.10,2013-06-16 02:14:00,
2013-06-15 22:29:00,61.9,57.0,29.97,ESE,119,0.0,-999.0,84,-99.99,,,0.00,weatherlink.com 1.10,2013-06-16 02:29:00,
2013-06-15 22:44:00,61.3,57.0,29.98,ESE,119,0.0,-999.0,86,-99.99,,,0.00,weatherlink.com 1.10,2013-06-16 02:44:00,
2013-06-15 22:59:00,60.6,57.0,29.98,ESE,119,0.0,-999.0,88,-99.99,,,0.00,weatherlink.com 1.10,2013-06-16 02:59:00,
2013-06-15 23:14:00,59.7,57.0,29.98,ESE,119,0.0,-999.0,89,-99.99,,,0.00,weatherlink.com 1.10,2013-06-16 03:14:00,